sensor_id;sensor_type;location;lat;lon;timestamp;pressure;altitude;pressure_sealevel;temperature;humidity
8069;BME280;4077;43.702;24.896;2024-02-26T00:00:31;51427.72;;;-145.38;100.00
8069;BME280;4077;43.702;24.896;2024-02-26T00:02:57;51396.50;;;-145.38;100.00
8069;BME280;4077;43.702;24.896;2024-02-26T00:05:23;51396.50;;;-145.38;100.00
8069;BME280;4077;43.702;24.896;2024-02-26T00:07:48;51435.53;;;-145.38;100.00
8069;BME280;4077;43.702;24.896;2024-02-26T00:10:14;51408.22;;;-145.38;100.00
8069;BME280;4077;43.702;24.896;2024-02-26T00:12:40;51408.22;;;-145.38;100.00
8069;BME280;4077;43.702;24.896;2024-02-26T00:15:06;51427.72;;;-145.38;100.00
8069;BME280;4077;43.702;24.896;2024-02-26T00:17:32;51392.59;;;-145.38;100.00
8069;BME280;4077;43.702;24.896;2024-02-26T00:19:58;51400.41;;;-145.38;100.00
8069;BME280;4077;43.702;24.896;2024-02-26T00:22:23;51404.31;;;-145.38;100.00
8069;BME280;4077;43.702;24.896;2024-02-26T00:24:49;51457.00;;;-145.38;100.00
8069;BME280;4077;43.702;24.896;2024-02-26T00:27:14;51406.25;;;-145.38;100.00
8069;BME280;4077;43.702;24.896;2024-02-26T00:29:39;51410.16;;;-145.38;100.00
8069;BME280;4077;43.702;24.896;2024-02-26T00:32:05;51396.50;;;-145.38;100.00
8069;BME280;4077;43.702;24.896;2024-02-26T00:34:31;51427.72;;;-145.38;100.00
8069;BME280;4077;43.702;24.896;2024-02-26T00:36:57;51400.41;;;-145.38;100.00
8069;BME280;4077;43.702;24.896;2024-02-26T00:39:22;51449.22;;;-145.38;100.00
8069;BME280;4077;43.702;24.896;2024-02-26T00:41:47;51412.13;;;-145.38;100.00
8069;BME280;4077;43.702;24.896;2024-02-26T00:44:13;51400.41;;;-145.38;100.00
8069;BME280;4077;43.702;24.896;2024-02-26T00:46:38;51419.94;;;-145.38;100.00
8069;BME280;4077;43.702;24.896;2024-02-26T00:49:04;51478.50;;;-145.38;100.00
8069;BME280;4077;43.702;24.896;2024-02-26T00:51:30;51400.41;;;-145.38;100.00
8069;BME280;4077;43.702;24.896;2024-02-26T00:53:56;51427.72;;;-145.38;100.00
8069;BME280;4077;43.702;24.896;2024-02-26T00:56:21;51396.50;;;-145.38;100.00
8069;BME280;4077;43.702;24.896;2024-02-26T00:58:48;51431.63;;;-145.38;100.00
8069;BME280;4077;43.702;24.896;2024-02-26T01:01:13;51419.94;;;-145.38;100.00
8069;BME280;4077;43.702;24.896;2024-02-26T01:03:39;51455.06;;;-145.38;100.00
8069;BME280;4077;43.702;24.896;2024-02-26T01:06:04;51392.59;;;-145.38;100.00
8069;BME280;4077;43.702;24.896;2024-02-26T01:08:30;51394.53;;;-145.38;100.00
8069;BME280;4077;43.702;24.896;2024-02-26T01:10:57;51458.97;;;-145.38;100.00
8069;BME280;4077;43.702;24.896;2024-02-26T01:13:22;51427.72;;;-145.38;100.00
8069;BME280;4077;43.702;24.896;2024-02-26T01:15:48;51419.94;;;-145.38;100.00
8069;BME280;4077;43.702;24.896;2024-02-26T01:18:13;51423.81;;;-145.38;100.00
8069;BME280;4077;43.702;24.896;2024-02-26T01:20:39;51419.94;;;-145.38;100.00
8069;BME280;4077;43.702;24.896;2024-02-26T01:23:04;51412.13;;;-145.38;100.00
8069;BME280;4077;43.702;24.896;2024-02-26T01:25:30;51431.63;;;-145.38;100.00
8069;BME280;4077;43.702;24.896;2024-02-26T01:27:55;51445.31;;;-145.38;100.00
8069;BME280;4077;43.702;24.896;2024-02-26T01:30:21;51384.78;;;-145.38;100.00
8069;BME280;4077;43.702;24.896;2024-02-26T01:32:46;51445.31;;;-145.38;100.00
8069;BME280;4077;43.702;24.896;2024-02-26T01:35:12;51382.84;;;-145.38;100.00
8069;BME280;4077;43.702;24.896;2024-02-26T01:37:38;51435.53;;;-145.38;100.00
8069;BME280;4077;43.702;24.896;2024-02-26T01:40:05;51439.44;;;-145.38;100.00
8069;BME280;4077;43.702;24.896;2024-02-26T01:42:32;51423.81;;;-145.38;100.00
8069;BME280;4077;43.702;24.896;2024-02-26T01:44:58;51392.59;;;-145.38;100.00
8069;BME280;4077;43.702;24.896;2024-02-26T01:47:24;51431.63;;;-145.38;100.00
8069;BME280;4077;43.702;24.896;2024-02-26T01:49:51;51447.25;;;-145.38;100.00
8069;BME280;4077;43.702;24.896;2024-02-26T01:52:17;51451.16;;;-145.38;100.00
8069;BME280;4077;43.702;24.896;2024-02-26T01:54:44;51443.34;;;-145.38;100.00
8069;BME280;4077;43.702;24.896;2024-02-26T01:57:11;51427.72;;;-145.38;100.00
8069;BME280;4077;43.702;24.896;2024-02-26T01:59:37;51478.50;;;-145.38;100.00
8069;BME280;4077;43.702;24.896;2024-02-26T02:02:07;51392.59;;;-145.38;100.00
8069;BME280;4077;43.702;24.896;2024-02-26T02:04:35;51443.34;;;-145.38;100.00
8069;BME280;4077;43.702;24.896;2024-02-26T02:07:01;51447.25;;;-145.38;100.00
8069;BME280;4077;43.702;24.896;2024-02-26T02:09:27;51435.53;;;-145.38;100.00
8069;BME280;4077;43.702;24.896;2024-02-26T02:11:53;51447.25;;;-145.38;100.00
8069;BME280;4077;43.702;24.896;2024-02-26T02:14:19;51410.16;;;-145.38;100.00
8069;BME280;4077;43.702;24.896;2024-02-26T02:16:45;51453.09;;;-145.38;100.00
8069;BME280;4077;43.702;24.896;2024-02-26T02:19:11;51455.06;;;-145.38;100.00
8069;BME280;4077;43.702;24.896;2024-02-26T02:21:36;51412.13;;;-145.38;100.00
8069;BME280;4077;43.702;24.896;2024-02-26T02:24:02;51416.03;;;-145.38;100.00
8069;BME280;4077;43.702;24.896;2024-02-26T02:26:27;51390.66;;;-145.38;100.00
8069;BME280;4077;43.702;24.896;2024-02-26T02:28:53;51443.34;;;-145.38;100.00
8069;BME280;4077;43.702;24.896;2024-02-26T02:31:19;51419.94;;;-145.38;100.00
8069;BME280;4077;43.702;24.896;2024-02-26T02:33:44;51400.41;;;-145.38;100.00
8069;BME280;4077;43.702;24.896;2024-02-26T02:36:10;51435.53;;;-145.38;100.00
8069;BME280;4077;43.702;24.896;2024-02-26T02:38:37;51416.03;;;-145.38;100.00
8069;BME280;4077;43.702;24.896;2024-02-26T02:41:02;51445.31;;;-145.38;100.00
8069;BME280;4077;43.702;24.896;2024-02-26T02:43:28;51427.72;;;-145.38;100.00
8069;BME280;4077;43.702;24.896;2024-02-26T02:45:53;51402.34;;;-145.38;100.00
8069;BME280;4077;43.702;24.896;2024-02-26T02:48:19;51449.22;;;-145.38;100.00
8069;BME280;4077;43.702;24.896;2024-02-26T02:50:44;51388.69;;;-145.38;100.00
8069;BME280;4077;43.702;24.896;2024-02-26T02:53:10;51447.25;;;-145.38;100.00
8069;BME280;4077;43.702;24.896;2024-02-26T02:55:35;51431.63;;;-145.38;100.00
8069;BME280;4077;43.702;24.896;2024-02-26T02:58:01;51390.66;;;-145.38;100.00
8069;BME280;4077;43.702;24.896;2024-02-26T03:00:26;51400.41;;;-145.38;100.00
8069;BME280;4077;43.702;24.896;2024-02-26T03:02:52;51443.34;;;-145.38;100.00
8069;BME280;4077;43.702;24.896;2024-02-26T03:05:18;51439.44;;;-145.38;100.00
8069;BME280;4077;43.702;24.896;2024-02-26T03:07:43;51416.03;;;-145.38;100.00
8069;BME280;4077;43.702;24.896;2024-02-26T03:10:09;51408.22;;;-145.38;100.00
8069;BME280;4077;43.702;24.896;2024-02-26T03:12:34;51412.13;;;-145.38;100.00
8069;BME280;4077;43.702;24.896;2024-02-26T03:15:00;51431.63;;;-145.38;100.00
8069;BME280;4077;43.702;24.896;2024-02-26T03:17:29;51447.25;;;-145.38;100.00
8069;BME280;4077;43.702;24.896;2024-02-26T03:19:55;51419.94;;;-145.38;100.00
8069;BME280;4077;43.702;24.896;2024-02-26T03:22:21;51416.03;;;-145.38;100.00
8069;BME280;4077;43.702;24.896;2024-02-26T03:24:48;51441.41;;;-145.38;100.00
8069;BME280;4077;43.702;24.896;2024-02-26T03:27:14;51412.13;;;-145.38;100.00
8069;BME280;4077;43.702;24.896;2024-02-26T03:29:39;51447.25;;;-145.38;100.00
8069;BME280;4077;43.702;24.896;2024-02-26T03:32:05;51451.16;;;-145.38;100.00
8069;BME280;4077;43.702;24.896;2024-02-26T03:34:32;51410.16;;;-145.38;100.00
8069;BME280;4077;43.702;24.896;2024-02-26T03:36:59;51439.44;;;-145.38;100.00
8069;BME280;4077;43.702;24.896;2024-02-26T03:39:25;51435.53;;;-145.38;100.00
8069;BME280;4077;43.702;24.896;2024-02-26T03:41:50;51447.25;;;-145.38;100.00
8069;BME280;4077;43.702;24.896;2024-02-26T03:44:16;51443.34;;;-145.38;100.00
8069;BME280;4077;43.702;24.896;2024-02-26T03:46:41;51416.03;;;-145.38;100.00
8069;BME280;4077;43.702;24.896;2024-02-26T03:49:08;51412.13;;;-145.38;100.00
8069;BME280;4077;43.702;24.896;2024-02-26T03:51:33;51443.34;;;-145.38;100.00
8069;BME280;4077;43.702;24.896;2024-02-26T03:53:59;51451.16;;;-145.38;100.00
8069;BME280;4077;43.702;24.896;2024-02-26T03:56:25;51402.34;;;-145.38;100.00
8069;BME280;4077;43.702;24.896;2024-02-26T03:58:51;51443.34;;;-145.38;100.00
8069;BME280;4077;43.702;24.896;2024-02-26T04:01:16;51439.44;;;-145.38;100.00
8069;BME280;4077;43.702;24.896;2024-02-26T04:03:42;51404.31;;;-145.38;100.00
8069;BME280;4077;43.702;24.896;2024-02-26T04:06:11;51451.16;;;-145.38;100.00
8069;BME280;4077;43.702;24.896;2024-02-26T04:08:39;51423.81;;;-145.38;100.00
8069;BME280;4077;43.702;24.896;2024-02-26T04:11:05;51458.97;;;-145.38;100.00
8069;BME280;4077;43.702;24.896;2024-02-26T04:13:35;51429.69;;;-145.38;100.00
8069;BME280;4077;43.702;24.896;2024-02-26T04:16:00;51390.66;;;-145.38;100.00
8069;BME280;4077;43.702;24.896;2024-02-26T04:18:29;51447.25;;;-145.38;100.00
8069;BME280;4077;43.702;24.896;2024-02-26T04:20:54;51419.94;;;-145.38;100.00
8069;BME280;4077;43.702;24.896;2024-02-26T04:23:20;51402.34;;;-145.38;100.00
8069;BME280;4077;43.702;24.896;2024-02-26T04:25:45;51419.94;;;-145.38;100.00
8069;BME280;4077;43.702;24.896;2024-02-26T04:28:12;51470.69;;;-145.38;100.00
8069;BME280;4077;43.702;24.896;2024-02-26T04:30:37;51451.16;;;-145.38;100.00
8069;BME280;4077;43.702;24.896;2024-02-26T04:33:03;51423.81;;;-145.38;100.00
8069;BME280;4077;43.702;24.896;2024-02-26T04:35:29;51455.06;;;-145.38;100.00
8069;BME280;4077;43.702;24.896;2024-02-26T04:37:54;51419.94;;;-145.38;100.00
8069;BME280;4077;43.702;24.896;2024-02-26T04:40:20;51435.53;;;-145.38;100.00
8069;BME280;4077;43.702;24.896;2024-02-26T04:42:45;51451.16;;;-145.38;100.00
8069;BME280;4077;43.702;24.896;2024-02-26T04:45:11;51431.63;;;-145.38;100.00
8069;BME280;4077;43.702;24.896;2024-02-26T04:47:36;51423.81;;;-145.38;100.00
8069;BME280;4077;43.702;24.896;2024-02-26T04:50:02;51435.53;;;-145.38;100.00
8069;BME280;4077;43.702;24.896;2024-02-26T04:52:27;51458.97;;;-145.38;100.00
8069;BME280;4077;43.702;24.896;2024-02-26T04:54:53;51443.34;;;-145.38;100.00
8069;BME280;4077;43.702;24.896;2024-02-26T04:57:20;51455.06;;;-145.38;100.00
8069;BME280;4077;43.702;24.896;2024-02-26T04:59:45;51412.13;;;-145.38;100.00
8069;BME280;4077;43.702;24.896;2024-02-26T05:02:12;51417.97;;;-145.38;100.00
8069;BME280;4077;43.702;24.896;2024-02-26T05:04:37;51439.44;;;-145.38;100.00
8069;BME280;4077;43.702;24.896;2024-02-26T05:07:03;51423.81;;;-145.38;100.00
8069;BME280;4077;43.702;24.896;2024-02-26T05:09:29;51431.63;;;-145.38;100.00
8069;BME280;4077;43.702;24.896;2024-02-26T05:11:54;51398.44;;;-145.38;100.00
8069;BME280;4077;43.702;24.896;2024-02-26T05:14:20;51427.72;;;-145.38;100.00
8069;BME280;4077;43.702;24.896;2024-02-26T05:16:45;51466.78;;;-145.38;100.00
8069;BME280;4077;43.702;24.896;2024-02-26T05:19:11;51419.94;;;-145.38;100.00
8069;BME280;4077;43.702;24.896;2024-02-26T05:21:36;51462.88;;;-145.38;100.00
8069;BME280;4077;43.702;24.896;2024-02-26T05:24:02;51414.06;;;-145.38;100.00
8069;BME280;4077;43.702;24.896;2024-02-26T05:26:27;51398.44;;;-145.38;100.00
8069;BME280;4077;43.702;24.896;2024-02-26T05:28:53;51423.81;;;-145.38;100.00
8069;BME280;4077;43.702;24.896;2024-02-26T05:31:24;51417.97;;;-145.38;100.00
8069;BME280;4077;43.702;24.896;2024-02-26T05:33:50;51404.31;;;-145.38;100.00
8069;BME280;4077;43.702;24.896;2024-02-26T05:36:22;51419.94;;;-145.38;100.00
8069;BME280;4077;43.702;24.896;2024-02-26T05:38:48;51441.41;;;-145.38;100.00
8069;BME280;4077;43.702;24.896;2024-02-26T05:41:17;51404.31;;;-145.38;100.00
8069;BME280;4077;43.702;24.896;2024-02-26T05:43:51;51408.22;;;-145.38;100.00
8069;BME280;4077;43.702;24.896;2024-02-26T05:46:17;51429.69;;;-145.38;100.00
8069;BME280;4077;43.702;24.896;2024-02-26T05:48:44;51419.94;;;-145.38;100.00
8069;BME280;4077;43.702;24.896;2024-02-26T05:51:10;51435.53;;;-145.38;100.00
8069;BME280;4077;43.702;24.896;2024-02-26T05:53:35;51417.97;;;-145.38;100.00
8069;BME280;4077;43.702;24.896;2024-02-26T05:56:00;51417.97;;;-145.38;100.00
8069;BME280;4077;43.702;24.896;2024-02-26T05:58:26;51423.81;;;-145.38;100.00
8069;BME280;4077;43.702;24.896;2024-02-26T06:00:51;51433.59;;;-145.38;100.00
8069;BME280;4077;43.702;24.896;2024-02-26T06:03:17;51396.50;;;-145.38;100.00
8069;BME280;4077;43.702;24.896;2024-02-26T06:05:42;51427.72;;;-145.38;100.00
8069;BME280;4077;43.702;24.896;2024-02-26T06:08:09;51412.13;;;-145.38;100.00
8069;BME280;4077;43.702;24.896;2024-02-26T06:10:34;51402.34;;;-145.38;100.00
8069;BME280;4077;43.702;24.896;2024-02-26T06:13:00;51388.69;;;-145.38;100.00
8069;BME280;4077;43.702;24.896;2024-02-26T06:15:25;51369.16;;;-145.38;100.00
8069;BME280;4077;43.702;24.896;2024-02-26T06:17:50;51419.94;;;-145.38;100.00
8069;BME280;4077;43.702;24.896;2024-02-26T06:20:16;51435.53;;;-145.38;100.00
8069;BME280;4077;43.702;24.896;2024-02-26T06:22:41;51373.06;;;-145.38;100.00
8069;BME280;4077;43.702;24.896;2024-02-26T06:25:07;51400.41;;;-145.38;100.00
8069;BME280;4077;43.702;24.896;2024-02-26T06:27:33;51412.13;;;-145.38;100.00
8069;BME280;4077;43.702;24.896;2024-02-26T06:29:59;51396.50;;;-145.38;100.00
8069;BME280;4077;43.702;24.896;2024-02-26T06:32:24;51376.97;;;-145.38;100.00
8069;BME280;4077;43.702;24.896;2024-02-26T06:34:52;51386.75;;;-145.38;100.00
8069;BME280;4077;43.702;24.896;2024-02-26T06:37:18;51427.72;;;-145.38;100.00
8069;BME280;4077;43.702;24.896;2024-02-26T06:39:43;51388.69;;;-145.38;100.00
8069;BME280;4077;43.702;24.896;2024-02-26T06:42:09;51365.25;;;-145.38;100.00
8069;BME280;4077;43.702;24.896;2024-02-26T06:44:34;51386.75;;;-145.38;100.00
8069;BME280;4077;43.702;24.896;2024-02-26T06:47:00;51392.59;;;-145.38;100.00
8069;BME280;4077;43.702;24.896;2024-02-26T06:49:26;51394.53;;;-145.38;100.00
8069;BME280;4077;43.702;24.896;2024-02-26T06:51:52;51400.41;;;-145.38;100.00
8069;BME280;4077;43.702;24.896;2024-02-26T06:54:18;51412.13;;;-145.38;100.00
8069;BME280;4077;43.702;24.896;2024-02-26T06:56:43;51361.34;;;-145.38;100.00
8069;BME280;4077;43.702;24.896;2024-02-26T06:59:09;51400.41;;;-145.38;100.00
8069;BME280;4077;43.702;24.896;2024-02-26T07:01:34;51423.81;;;-145.38;100.00
8069;BME280;4077;43.702;24.896;2024-02-26T07:04:00;51404.31;;;-145.38;100.00
8069;BME280;4077;43.702;24.896;2024-02-26T07:06:26;51363.31;;;-145.38;100.00
8069;BME280;4077;43.702;24.896;2024-02-26T07:08:52;51433.59;;;-145.38;100.00
8069;BME280;4077;43.702;24.896;2024-02-26T07:11:17;51404.31;;;-145.38;100.00
8069;BME280;4077;43.702;24.896;2024-02-26T07:13:45;51380.88;;;-145.38;100.00
8069;BME280;4077;43.702;24.896;2024-02-26T07:16:11;51386.75;;;-145.38;100.00
8069;BME280;4077;43.702;24.896;2024-02-26T07:18:36;51423.81;;;-145.38;100.00
8069;BME280;4077;43.702;24.896;2024-02-26T07:21:02;51382.84;;;-145.38;100.00
8069;BME280;4077;43.702;24.896;2024-02-26T07:23:29;51373.06;;;-145.38;100.00
8069;BME280;4077;43.702;24.896;2024-02-26T07:25:54;51392.59;;;-145.38;100.00
8069;BME280;4077;43.702;24.896;2024-02-26T07:28:20;51431.63;;;-145.38;100.00
8069;BME280;4077;43.702;24.896;2024-02-26T07:30:45;51414.06;;;-145.38;100.00
8069;BME280;4077;43.702;24.896;2024-02-26T07:33:11;51390.66;;;-145.38;100.00
8069;BME280;4077;43.702;24.896;2024-02-26T07:35:36;51396.50;;;-145.38;100.00
8069;BME280;4077;43.702;24.896;2024-02-26T07:38:04;51384.78;;;-145.38;100.00
8069;BME280;4077;43.702;24.896;2024-02-26T07:40:30;51384.78;;;-145.38;100.00
8069;BME280;4077;43.702;24.896;2024-02-26T07:42:55;51380.88;;;-145.38;100.00
8069;BME280;4077;43.702;24.896;2024-02-26T07:45:21;51382.84;;;-145.38;100.00
8069;BME280;4077;43.702;24.896;2024-02-26T07:47:47;51400.41;;;-145.38;100.00
8069;BME280;4077;43.702;24.896;2024-02-26T07:50:12;51376.97;;;-145.38;100.00
8069;BME280;4077;43.702;24.896;2024-02-26T07:52:38;51380.88;;;-145.38;100.00
8069;BME280;4077;43.702;24.896;2024-02-26T07:55:04;51349.66;;;-145.38;100.00
8069;BME280;4077;43.702;24.896;2024-02-26T07:57:30;51376.97;;;-145.38;100.00
8069;BME280;4077;43.702;24.896;2024-02-26T07:59:55;51380.88;;;-145.38;100.00
8069;BME280;4077;43.702;24.896;2024-02-26T08:02:21;51373.06;;;-145.38;100.00
8069;BME280;4077;43.702;24.896;2024-02-26T08:04:47;51392.59;;;-145.38;100.00
8069;BME280;4077;43.702;24.896;2024-02-26T08:07:12;51408.22;;;-145.38;100.00
8069;BME280;4077;43.702;24.896;2024-02-26T08:09:38;51400.41;;;-145.38;100.00
8069;BME280;4077;43.702;24.896;2024-02-26T08:12:03;51367.22;;;-145.38;100.00
8069;BME280;4077;43.702;24.896;2024-02-26T08:14:29;51412.13;;;-145.38;100.00
8069;BME280;4077;43.702;24.896;2024-02-26T08:16:54;51388.69;;;-145.38;100.00
8069;BME280;4077;43.702;24.896;2024-02-26T08:19:20;51392.59;;;-145.38;100.00
8069;BME280;4077;43.702;24.896;2024-02-26T08:21:45;51380.88;;;-145.38;100.00
8069;BME280;4077;43.702;24.896;2024-02-26T08:24:11;51337.94;;;-145.38;100.00
8069;BME280;4077;43.702;24.896;2024-02-26T08:26:36;51375.03;;;-145.38;100.00
8069;BME280;4077;43.702;24.896;2024-02-26T08:29:02;51367.22;;;-145.38;100.00
8069;BME280;4077;43.702;24.896;2024-02-26T08:31:27;51369.16;;;-145.38;100.00
8069;BME280;4077;43.702;24.896;2024-02-26T08:33:53;51384.78;;;-145.38;100.00
8069;BME280;4077;43.702;24.896;2024-02-26T08:36:18;51402.34;;;-145.38;100.00
8069;BME280;4077;43.702;24.896;2024-02-26T08:38:44;51328.19;;;-145.38;100.00
8069;BME280;4077;43.702;24.896;2024-02-26T08:41:09;51345.75;;;-145.38;100.00
8069;BME280;4077;43.702;24.896;2024-02-26T08:43:35;51386.75;;;-145.38;100.00
8069;BME280;4077;43.702;24.896;2024-02-26T08:46:01;51371.13;;;-145.38;100.00
8069;BME280;4077;43.702;24.896;2024-02-26T08:48:26;51365.25;;;-145.38;100.00
8069;BME280;4077;43.702;24.896;2024-02-26T08:50:52;51365.25;;;-145.38;100.00
8069;BME280;4077;43.702;24.896;2024-02-26T08:53:17;51361.34;;;-145.38;100.00
8069;BME280;4077;43.702;24.896;2024-02-26T08:55:43;51357.47;;;-145.38;100.00
8069;BME280;4077;43.702;24.896;2024-02-26T08:58:08;51347.69;;;-145.38;100.00
8069;BME280;4077;43.702;24.896;2024-02-26T09:00:34;51361.34;;;-145.38;100.00
8069;BME280;4077;43.702;24.896;2024-02-26T09:02:59;51341.84;;;-145.38;100.00
8069;BME280;4077;43.702;24.896;2024-02-26T09:05:24;51310.59;;;-145.38;100.00
8069;BME280;4077;43.702;24.896;2024-02-26T09:07:50;51326.22;;;-145.38;100.00
8069;BME280;4077;43.702;24.896;2024-02-26T09:10:17;51335.97;;;-145.38;100.00
8069;BME280;4077;43.702;24.896;2024-02-26T09:12:42;51373.06;;;-145.38;100.00
8069;BME280;4077;43.702;24.896;2024-02-26T09:15:08;51339.88;;;-145.38;97.90
8069;BME280;4077;43.702;24.896;2024-02-26T09:17:34;51337.94;;;-145.38;97.51
8069;BME280;4077;43.702;24.896;2024-02-26T09:19:59;51357.47;;;-145.38;94.60
8069;BME280;4077;43.702;24.896;2024-02-26T09:22:25;51314.50;;;-145.38;96.36
8069;BME280;4077;43.702;24.896;2024-02-26T09:24:50;51345.75;;;-145.38;93.94
8069;BME280;4077;43.702;24.896;2024-02-26T09:27:17;51298.91;;;-145.38;90.63
8069;BME280;4077;43.702;24.896;2024-02-26T09:29:43;51330.13;;;-145.38;89.33
8069;BME280;4077;43.702;24.896;2024-02-26T09:32:08;51337.94;;;-145.38;85.32
8069;BME280;4077;43.702;24.896;2024-02-26T09:34:34;51345.75;;;-145.38;84.63
8069;BME280;4077;43.702;24.896;2024-02-26T09:36:59;51312.56;;;-145.38;84.50
8069;BME280;4077;43.702;24.896;2024-02-26T09:39:26;51341.84;;;-145.38;84.66
8069;BME280;4077;43.702;24.896;2024-02-26T09:41:53;51308.66;;;-145.38;84.69
8069;BME280;4077;43.702;24.896;2024-02-26T09:44:19;51341.84;;;-145.38;83.17
8069;BME280;4077;43.702;24.896;2024-02-26T09:46:48;51320.38;;;-145.38;81.83
8069;BME280;4077;43.702;24.896;2024-02-26T09:49:18;51298.91;;;-145.38;80.85
8069;BME280;4077;43.702;24.896;2024-02-26T09:51:45;51326.22;;;-145.38;79.44
8069;BME280;4077;43.702;24.896;2024-02-26T09:54:13;51287.19;;;-145.38;80.35
8069;BME280;4077;43.702;24.896;2024-02-26T09:56:41;51322.31;;;-145.38;83.30
8069;BME280;4077;43.702;24.896;2024-02-26T09:59:14;51302.78;;;-145.38;84.96
8069;BME280;4077;43.702;24.896;2024-02-26T10:01:42;51236.44;;;-145.38;84.20
8069;BME280;4077;43.702;24.896;2024-02-26T10:04:08;51341.84;;;-145.38;83.10
8069;BME280;4077;43.702;24.896;2024-02-26T10:06:34;51289.13;;;-145.38;86.05
8069;BME280;4077;43.702;24.896;2024-02-26T10:09:01;51320.38;;;-145.38;90.04
8069;BME280;4077;43.702;24.896;2024-02-26T10:11:31;51337.94;;;-145.38;92.18
8069;BME280;4077;43.702;24.896;2024-02-26T10:13:57;51373.06;;;-145.38;93.79
8069;BME280;4077;43.702;24.896;2024-02-26T10:16:22;51318.41;;;-145.38;93.58
8069;BME280;4077;43.702;24.896;2024-02-26T10:18:52;51300.84;;;-145.38;93.37
8069;BME280;4077;43.702;24.896;2024-02-26T10:21:22;51324.28;;;-145.38;93.10
8069;BME280;4077;43.702;24.896;2024-02-26T10:23:49;51287.19;;;-145.38;92.78
8069;BME280;4077;43.702;24.896;2024-02-26T10:26:16;51349.66;;;-145.38;91.05
8069;BME280;4077;43.702;24.896;2024-02-26T10:28:43;51314.50;;;-145.38;89.62
8069;BME280;4077;43.702;24.896;2024-02-26T10:31:09;51304.75;;;-145.38;88.05
8069;BME280;4077;43.702;24.896;2024-02-26T10:33:36;51306.69;;;-145.38;87.02
8069;BME280;4077;43.702;24.896;2024-02-26T10:36:03;51320.38;;;-145.38;87.01
8069;BME280;4077;43.702;24.896;2024-02-26T10:38:29;51326.22;;;-145.38;85.74
8069;BME280;4077;43.702;24.896;2024-02-26T10:40:55;51330.13;;;-145.38;89.07
8069;BME280;4077;43.702;24.896;2024-02-26T10:43:21;51373.06;;;-145.38;88.32
8069;BME280;4077;43.702;24.896;2024-02-26T10:45:46;51296.94;;;-145.38;87.48
8069;BME280;4077;43.702;24.896;2024-02-26T10:48:14;51310.59;;;-145.38;86.34
8069;BME280;4077;43.702;24.896;2024-02-26T10:50:40;51306.69;;;-145.38;86.77
8069;BME280;4077;43.702;24.896;2024-02-26T10:53:28;51326.22;;;-145.38;87.26
8069;BME280;4077;43.702;24.896;2024-02-26T10:56:03;51318.41;;;-145.38;87.37
8069;BME280;4077;43.702;24.896;2024-02-26T10:58:31;51318.41;;;-145.38;92.08
8069;BME280;4077;43.702;24.896;2024-02-26T11:00:57;51334.03;;;-145.38;94.87
8069;BME280;4077;43.702;24.896;2024-02-26T11:03:24;51326.22;;;-145.38;94.24
8069;BME280;4077;43.702;24.896;2024-02-26T11:05:50;51304.75;;;-145.38;94.62
8069;BME280;4077;43.702;24.896;2024-02-26T11:08:18;51295.00;;;-145.38;93.86
8069;BME280;4077;43.702;24.896;2024-02-26T11:10:47;51357.47;;;-145.38;94.69
8069;BME280;4077;43.702;24.896;2024-02-26T11:13:14;51332.06;;;-145.38;94.39
8069;BME280;4077;43.702;24.896;2024-02-26T11:15:40;51337.94;;;-145.38;95.28
8069;BME280;4077;43.702;24.896;2024-02-26T11:18:07;51316.47;;;-145.38;92.99
8069;BME280;4077;43.702;24.896;2024-02-26T11:20:34;51330.13;;;-145.38;93.83
8069;BME280;4077;43.702;24.896;2024-02-26T11:23:03;51324.28;;;-145.38;92.10
8069;BME280;4077;43.702;24.896;2024-02-26T11:25:29;51295.00;;;-145.38;88.77
8069;BME280;4077;43.702;24.896;2024-02-26T11:27:58;51279.38;;;-145.38;88.51
8069;BME280;4077;43.702;24.896;2024-02-26T11:30:30;51300.84;;;-145.38;87.12
8069;BME280;4077;43.702;24.896;2024-02-26T11:32:57;51287.19;;;-145.38;87.10
8069;BME280;4077;43.702;24.896;2024-02-26T11:35:24;51293.03;;;-145.38;87.90
8069;BME280;4077;43.702;24.896;2024-02-26T11:37:56;51296.94;;;-145.38;89.16
8069;BME280;4077;43.702;24.896;2024-02-26T11:40:23;51285.22;;;-145.38;89.79
8069;BME280;4077;43.702;24.896;2024-02-26T11:42:50;51320.38;;;-145.38;91.67
8069;BME280;4077;43.702;24.896;2024-02-26T11:48:16;51345.75;;;-145.38;92.36
8069;BME280;4077;43.702;24.896;2024-02-26T11:50:53;51285.22;;;-145.38;91.07
8069;BME280;4077;43.702;24.896;2024-02-26T11:53:26;51283.28;;;-145.38;90.24
8069;BME280;4077;43.702;24.896;2024-02-26T11:58:42;51279.38;;;-145.38;89.48
8069;BME280;4077;43.702;24.896;2024-02-26T12:04:05;51279.38;;;-145.38;90.96
8069;BME280;4077;43.702;24.896;2024-02-26T12:06:39;51302.78;;;-145.38;90.18
8069;BME280;4077;43.702;24.896;2024-02-26T12:09:07;51298.91;;;-145.38;89.36
8069;BME280;4077;43.702;24.896;2024-02-26T12:11:32;51310.59;;;-145.38;88.33
8069;BME280;4077;43.702;24.896;2024-02-26T12:13:58;51308.66;;;-145.38;88.25
8069;BME280;4077;43.702;24.896;2024-02-26T12:16:39;51289.13;;;-145.38;88.29
8069;BME280;4077;43.702;24.896;2024-02-26T12:19:09;51318.41;;;-145.38;88.27
8069;BME280;4077;43.702;24.896;2024-02-26T12:21:36;51291.09;;;-145.38;87.74
8069;BME280;4077;43.702;24.896;2024-02-26T12:24:14;51322.31;;;-145.38;86.89
8069;BME280;4077;43.702;24.896;2024-02-26T12:26:41;51298.91;;;-145.38;86.67
8069;BME280;4077;43.702;24.896;2024-02-26T12:29:08;51318.41;;;-145.38;86.01
8069;BME280;4077;43.702;24.896;2024-02-26T12:31:33;51298.91;;;-145.38;83.89
8069;BME280;4077;43.702;24.896;2024-02-26T12:34:00;51267.66;;;-145.38;84.23
8069;BME280;4077;43.702;24.896;2024-02-26T12:36:26;51302.78;;;-145.38;83.47
8069;BME280;4077;43.702;24.896;2024-02-26T12:38:52;51263.75;;;-145.38;81.73
8069;BME280;4077;43.702;24.896;2024-02-26T12:41:17;51267.66;;;-145.38;81.44
8069;BME280;4077;43.702;24.896;2024-02-26T12:43:43;51295.00;;;-145.38;81.27
8069;BME280;4077;43.702;24.896;2024-02-26T12:46:08;51322.31;;;-145.38;80.33